Corte Madera, California
Current Conditions -  °F | °C
As of 4:55 PM on Wednesday 17 Dec 2014 (Local Time) from KDVO Reporting Station
Light Rain Light Rain  
Wind Chill: 54°   Ceiling: 3800
Heat Index: 54°   Visibility: 5mi
Dew Point: 52°   Wind: 0mph
Humidity: 94%   Direction: NA
Pressure: 30.05"   Gusts: NA
Location:  37.93°N, 122.52°W
Report Text: KDVO 180055Z AUTO 00000KT 5SM -RA FEW026 SCT033 BKN038 12/11 A3005 RMK AO2 P0001
Loading
Personal Weather Stations






























Interactive Weather Map New forecast layout! Learn more

10-Day Weather Forecast

Advertisements
Track Severe Weather on mobile